Time;durP1;ratioP1;P1;durP2;ratioP2;P2;SDS_P1;SDS_P2;PMS_P1;PMS_P2;Temp;Humidity;BMP_temperature;BMP_pressure;BME280_temperature;BME280_humidity;BME280_pressure;Samples;Min_cycle;Max_cycle;Signal;HPM_P1;HPM_P2
2023/12/22 00:01:32;;;;;;;22.17;3.95;;;10.30;99.90;;;;;;5062612;28;20120;-73
2023/12/22 00:03:59;;;;;;;27.90;4.25;;;10.30;99.90;;;;;;5066150;28;20045;-73
2023/12/22 00:06:26;;;;;;;15.48;3.70;;;10.30;99.90;;;;;;5066263;28;20048;-73
2023/12/22 00:08:53;;;;;;;24.55;4.00;;;10.20;99.90;;;;;;5066080;28;20135;-72
2023/12/22 00:11:20;;;;;;;31.98;5.78;;;10.20;99.90;;;;;;5065711;28;20052;-71
2023/12/22 00:13:46;;;;;;;25.85;4.82;;;10.20;99.90;;;;;;5065455;28;20044;-72
2023/12/22 00:16:13;;;;;;;21.35;4.22;;;10.10;99.90;;;;;;5066094;28;20052;-73
2023/12/22 00:18:40;;;;;;;21.67;3.47;;;10.10;99.90;;;;;;5064703;28;20067;-73
2023/12/22 00:21:13;;;;;;;23.90;4.38;;;10.10;99.90;;;;;;5066144;28;20040;-72
2023/12/22 00:23:40;;;;;;;28.20;4.60;;;10.10;99.90;;;;;;5065021;28;20049;-73
2023/12/22 00:26:07;;;;;;;20.23;4.50;;;10.10;99.90;;;;;;5066386;28;20098;-73
2023/12/22 00:28:33;;;;;;;31.77;5.30;;;10.10;99.90;;;;;;5065990;28;20125;-73
2023/12/22 00:31:00;;;;;;;20.50;4.60;;;10.10;99.90;;;;;;5066655;28;20068;-74
2023/12/22 00:33:27;;;;;;;18.60;4.65;;;10.10;99.90;;;;;;5066319;28;20135;-72
2023/12/22 00:35:54;;;;;;;35.35;5.05;;;10.10;99.90;;;;;;5066618;28;20037;-73
2023/12/22 00:38:21;;;;;;;16.85;3.33;;;10.10;99.90;;;;;;5065380;28;20109;-73
2023/12/22 00:40:48;;;;;;;14.38;3.67;;;10.10;99.90;;;;;;5066645;28;20052;-71
2023/12/22 00:43:15;;;;;;;17.27;3.78;;;10.10;99.90;;;;;;5067246;28;20036;-71
2023/12/22 00:45:42;;;;;;;22.67;3.92;;;10.10;99.90;;;;;;5065674;28;20283;-72
2023/12/22 00:48:08;;;;;;;30.52;5.20;;;10.20;99.90;;;;;;5064021;28;20060;-71
2023/12/22 00:50:35;;;;;;;24.60;5.40;;;10.10;99.90;;;;;;5061512;28;20110;-71
2023/12/22 00:53:02;;;;;;;21.50;3.47;;;10.10;99.90;;;;;;5065297;28;20041;-72
2023/12/22 00:55:29;;;;;;;20.85;4.03;;;10.20;99.90;;;;;;5065259;28;20433;-73
2023/12/22 00:57:56;;;;;;;16.17;3.50;;;10.10;99.90;;;;;;5065844;28;20040;-73
2023/12/22 01:00:22;;;;;;;29.70;4.82;;;10.20;99.90;;;;;;5065245;28;20105;-72
2023/12/22 01:02:49;;;;;;;16.83;3.63;;;10.30;99.90;;;;;;5065603;28;20049;-72
2023/12/22 01:05:16;;;;;;;19.23;3.78;;;10.30;99.90;;;;;;5065478;28;20048;-72
2023/12/22 01:07:43;;;;;;;24.38;3.20;;;10.30;99.90;;;;;;4714540;28;9999788;-72
2023/12/22 01:10:10;;;;;;;17.23;2.92;;;10.30;99.90;;;;;;5061051;28;20052;-72
2023/12/22 01:12:37;;;;;;;17.15;3.13;;;10.30;99.90;;;;;;5064625;28;20457;-72
2023/12/22 01:15:05;;;;;;;22.42;3.30;;;10.30;99.90;;;;;;5065740;28;20095;-72
2023/12/22 01:17:32;;;;;;;21.30;3.83;;;10.30;99.90;;;;;;5065813;28;20056;-73
2023/12/22 01:19:58;;;;;;;14.73;2.65;;;10.40;99.90;;;;;;5065630;28;20053;-72
2023/12/22 01:22:25;;;;;;;14.50;2.90;;;10.40;99.90;;;;;;5064387;28;20041;-72
2023/12/22 01:24:52;;;;;;;20.98;2.78;;;10.40;99.90;;;;;;5065544;28;20059;-73
2023/12/22 01:27:19;;;;;;;7.68;2.50;;;10.40;99.90;;;;;;5065753;28;20512;-73
2023/12/22 01:29:46;;;;;;;11.77;3.25;;;10.40;99.90;;;;;;5065813;28;20105;-72
2023/12/22 01:32:13;;;;;;;13.38;2.75;;;10.40;99.90;;;;;;5065786;28;20040;-73
2023/12/22 01:34:40;;;;;;;6.18;1.27;;;10.50;99.90;;;;;;5065593;28;20518;-74
2023/12/22 01:37:07;;;;;;;22.85;5.22;;;10.50;99.90;;;;;;5066341;28;20124;-72
2023/12/22 01:39:33;;;;;;;9.80;1.98;;;10.50;99.90;;;;;;5065341;28;20087;-72
2023/12/22 01:42:00;;;;;;;6.90;1.60;;;10.60;99.90;;;;;;5065817;28;20041;-72
2023/12/22 01:44:27;;;;;;;9.70;1.85;;;10.60;99.90;;;;;;5062617;28;20467;-72
2023/12/22 01:46:54;;;;;;;7.70;1.63;;;10.60;99.90;;;;;;5062140;28;20051;-73
2023/12/22 01:49:21;;;;;;;10.00;1.77;;;10.70;99.90;;;;;;5069252;28;20377;-72
2023/12/22 01:51:48;;;;;;;10.65;1.63;;;10.70;99.90;;;;;;5067874;28;20411;-72
2023/12/22 01:54:15;;;;;;;6.00;1.05;;;10.70;99.90;;;;;;5068607;28;20048;-72
2023/12/22 01:56:42;;;;;;;5.72;0.70;;;10.70;99.90;;;;;;5068855;28;20048;-71
2023/12/22 01:59:09;;;;;;;8.68;1.23;;;10.70;99.90;;;;;;5070508;28;20064;-72
2023/12/22 02:01:36;;;;;;;5.15;0.75;;;10.60;99.90;;;;;;5058551;28;20044;-71
2023/12/22 02:04:03;;;;;;;3.40;1.35;;;10.70;99.90;;;;;;5060274;28;20404;-72
2023/12/22 02:06:31;;;;;;;7.28;1.10;;;10.70;99.90;;;;;;5059066;28;20098;-72
2023/12/22 02:08:58;;;;;;;1.92;0.73;;;10.70;99.90;;;;;;5064699;28;20056;-73
2023/12/22 02:11:24;;;;;;;7.00;0.90;;;10.70;99.90;;;;;;5058174;28;20040;-72
2023/12/22 02:13:51;;;;;;;7.38;1.15;;;10.60;99.90;;;;;;5056255;28;20052;-73
2023/12/22 02:16:41;;;;;;;4.82;1.48;;;10.60;99.90;;;;;;5061383;28;20049;-72
2023/12/22 02:19:42;;;;;;;4.95;0.82;;;10.60;99.90;;;;;;5068610;28;20376;-72
2023/12/22 02:22:10;;;;;;;4.85;1.30;;;10.50;99.90;;;;;;5063563;28;20052;-72
2023/12/22 02:24:37;;;;;;;9.13;1.35;;;10.50;99.90;;;;;;5068034;28;20040;-72
2023/12/22 02:27:20;;;;;;;5.07;1.25;;;10.50;99.90;;;;;;5069059;28;20047;-72
2023/12/22 02:29:48;;;;;;;5.40;1.65;;;10.30;99.90;;;;;;5068399;28;20040;-71
2023/12/22 02:32:25;;;;;;;6.22;1.23;;;10.20;99.90;;;;;;5066847;28;20064;-72
2023/12/22 02:34:53;;;;;;;5.97;1.73;;;10.10;99.90;;;;;;5063654;28;20517;-71
2023/12/22 02:37:20;;;;;;;8.02;1.42;;;9.90;99.90;;;;;;5061914;28;20083;-72
2023/12/22 02:39:47;;;;;;;21.10;2.72;;;9.90;99.90;;;;;;5049157;28;20503;-72
2023/12/22 02:42:14;;;;;;;12.00;4.60;;;9.80;99.90;;;;;;5066661;28;20044;-73
2023/12/22 02:44:40;;;;;;;10.30;1.83;;;9.60;99.90;;;;;;5067882;28;20356;-72
2023/12/22 02:47:07;;;;;;;12.88;1.88;;;9.50;99.90;;;;;;5067852;28;20125;-73
2023/12/22 02:49:34;;;;;;;8.75;1.73;;;9.40;99.90;;;;;;5068204;28;20500;-71
2023/12/22 02:52:01;;;;;;;5.63;1.30;;;9.40;99.90;;;;;;5066677;28;20132;-72
2023/12/22 02:54:29;;;;;;;10.52;2.20;;;9.40;99.90;;;;;;5066303;28;20129;-72
2023/12/22 02:56:56;;;;;;;7.22;1.75;;;9.30;99.90;;;;;;5061815;28;20094;-72
2023/12/22 02:59:23;;;;;;;9.82;1.77;;;9.30;99.90;;;;;;5067119;28;20079;-72
2023/12/22 03:01:50;;;;;;;13.60;1.88;;;9.30;99.90;;;;;;5068302;28;20082;-72
2023/12/22 03:04:17;;;;;;;5.80;1.60;;;9.30;99.90;;;;;;5067470;28;20052;-72
2023/12/22 03:06:44;;;;;;;15.93;2.70;;;9.30;99.90;;;;;;5065490;28;20534;-72
2023/12/22 03:09:11;;;;;;;9.90;1.80;;;9.30;99.90;;;;;;5066250;28;20052;-72
2023/12/22 03:11:38;;;;;;;14.52;2.35;;;9.30;99.90;;;;;;5068221;28;20071;-71
2023/12/22 03:14:05;;;;;;;9.60;1.92;;;9.20;99.90;;;;;;5068790;28;20044;-71
2023/12/22 03:16:31;;;;;;;10.80;2.25;;;9.20;99.90;;;;;;5069644;28;20041;-71
2023/12/22 03:18:58;;;;;;;11.07;2.38;;;9.30;99.90;;;;;;5069008;28;20095;-73
2023/12/22 03:21:25;;;;;;;10.15;3.13;;;9.30;99.90;;;;;;5066364;28;20047;-72
2023/12/22 03:23:52;;;;;;;10.25;1.75;;;9.30;99.90;;;;;;5061669;28;20041;-71
2023/12/22 03:26:19;;;;;;;8.13;1.90;;;9.30;99.90;;;;;;5063415;28;20157;-72
2023/12/22 03:28:46;;;;;;;7.45;1.63;;;9.40;99.90;;;;;;5073796;28;20109;-73
2023/12/22 03:31:13;;;;;;;9.68;2.00;;;9.40;99.90;;;;;;5068809;28;20047;-69
2023/12/22 03:33:40;;;;;;;9.45;2.78;;;9.40;99.90;;;;;;5068153;28;20049;-71
2023/12/22 03:36:07;;;;;;;9.48;2.08;;;9.40;99.90;;;;;;5068805;28;20492;-72
2023/12/22 03:38:33;;;;;;;7.45;1.48;;;9.40;99.90;;;;;;5066869;28;20547;-72
2023/12/22 03:41:00;;;;;;;5.97;1.45;;;9.40;99.90;;;;;;5061246;28;20052;-71
2023/12/22 03:43:28;;;;;;;9.82;3.33;;;9.50;99.90;;;;;;5067894;28;20535;-72
2023/12/22 03:45:55;;;;;;;5.57;1.60;;;9.50;99.90;;;;;;5068199;28;20044;-71
2023/12/22 03:48:22;;;;;;;11.13;1.60;;;9.50;99.90;;;;;;5068362;28;20545;-71
2023/12/22 03:50:48;;;;;;;7.30;1.45;;;9.50;99.90;;;;;;5068198;28;20060;-72
2023/12/22 03:53:15;;;;;;;7.00;2.30;;;9.60;99.90;;;;;;5067629;28;20102;-71
2023/12/22 03:55:42;;;;;;;8.82;1.45;;;9.50;99.90;;;;;;5068125;28;20044;-71
2023/12/22 03:58:10;;;;;;;7.95;1.33;;;9.60;99.90;;;;;;5068394;28;20557;-73
2023/12/22 04:00:37;;;;;;;6.30;0.85;;;9.60;99.90;;;;;;5067755;28;20048;-72
2023/12/22 04:03:04;;;;;;;6.32;1.60;;;9.70;99.90;;;;;;5067815;28;20454;-72
2023/12/22 04:05:31;;;;;;;3.88;1.38;;;9.70;99.90;;;;;;5064693;28;20182;-71
2023/12/22 04:07:57;;;;;;;1.63;0.88;;;9.70;99.90;;;;;;5066102;28;20127;-72
2023/12/22 04:10:24;;;;;;;4.93;1.15;;;9.80;99.90;;;;;;5067779;28;20037;-72
2023/12/22 04:12:51;;;;;;;5.07;0.93;;;9.80;99.90;;;;;;5067684;28;20052;-71
2023/12/22 04:15:18;;;;;;;3.92;1.20;;;9.90;99.90;;;;;;5067757;28;20438;-71
2023/12/22 04:17:45;;;;;;;6.97;1.10;;;9.90;99.90;;;;;;5067243;28;20048;-71
2023/12/22 04:20:13;;;;;;;1.52;0.70;;;10.00;99.90;;;;;;5067855;28;20055;-72
2023/12/22 04:22:40;;;;;;;5.43;0.90;;;10.00;99.90;;;;;;5066423;28;20044;-71
2023/12/22 04:25:07;;;;;;;4.25;0.90;;;10.00;99.90;;;;;;5059161;28;20054;-72
2023/12/22 04:27:35;;;;;;;4.00;1.02;;;10.10;99.90;;;;;;5065718;28;20048;-72
2023/12/22 04:30:01;;;;;;;4.38;0.93;;;10.10;99.90;;;;;;5067689;28;20052;-72
2023/12/22 04:32:28;;;;;;;2.95;0.85;;;10.20;99.90;;;;;;5067301;28;20130;-72
2023/12/22 04:34:55;;;;;;;6.15;0.70;;;10.20;99.90;;;;;;5067555;28;20056;-71
2023/12/22 04:37:22;;;;;;;3.72;0.90;;;10.20;99.90;;;;;;5067110;28;20044;-72
2023/12/22 04:39:49;;;;;;;2.25;0.77;;;10.20;99.90;;;;;;5067781;28;20045;-71
2023/12/22 04:42:15;;;;;;;6.93;1.42;;;10.20;99.90;;;;;;5067008;28;20098;-71
2023/12/22 04:44:42;;;;;;;3.38;0.88;;;10.20;99.90;;;;;;5066296;28;20098;-72
2023/12/22 04:47:09;;;;;;;3.08;0.85;;;10.30;99.90;;;;;;5066137;28;20040;-72
2023/12/22 04:49:36;;;;;;;2.20;0.80;;;10.30;99.90;;;;;;5067622;28;20121;-71
2023/12/22 04:52:03;;;;;;;3.53;0.80;;;10.30;99.90;;;;;;5067261;28;20054;-72
2023/12/22 04:54:30;;;;;;;1.27;0.60;;;10.40;99.90;;;;;;5066797;28;20056;-70
2023/12/22 04:56:57;;;;;;;2.97;0.80;;;10.40;99.90;;;;;;5067262;28;20115;-71
2023/12/22 04:59:23;;;;;;;5.25;1.45;;;10.40;99.90;;;;;;5067099;28;20097;-71
2023/12/22 05:01:50;;;;;;;5.38;0.75;;;10.40;99.90;;;;;;5067535;28;20517;-71
2023/12/22 05:04:17;;;;;;;3.45;0.85;;;10.50;99.90;;;;;;5059342;28;20041;-71
2023/12/22 05:06:45;;;;;;;4.72;0.68;;;10.50;99.90;;;;;;5067700;28;20562;-71
2023/12/22 05:09:12;;;;;;;2.97;0.80;;;10.60;99.90;;;;;;5066727;28;20072;-71
2023/12/22 05:11:39;;;;;;;3.58;0.82;;;10.60;99.90;;;;;;5067644;28;20080;-72
2023/12/22 05:14:05;;;;;;;4.20;1.08;;;10.60;99.90;;;;;;5066915;28;20156;-72
2023/12/22 05:16:33;;;;;;;4.00;1.08;;;10.60;99.90;;;;;;5067216;28;20048;-71
2023/12/22 05:19:00;;;;;;;3.03;1.02;;;10.70;99.90;;;;;;5064998;28;20434;-72
2023/12/22 05:21:30;;;;;;;3.60;0.93;;;10.70;99.90;;;;;;5067803;28;20048;-72
2023/12/22 05:23:57;;;;;;;1.52;0.50;;;10.70;99.90;;;;;;5066569;28;20310;-71
2023/12/22 05:26:24;;;;;;;3.47;0.70;;;10.80;99.90;;;;;;5068408;28;20044;-71
2023/12/22 05:28:51;;;;;;;4.60;0.60;;;10.70;99.90;;;;;;5071102;28;20044;-72
2023/12/22 05:31:19;;;;;;;3.00;0.70;;;10.70;99.90;;;;;;5070729;28;20041;-71
2023/12/22 05:33:46;;;;;;;1.05;0.40;;;10.80;99.90;;;;;;5070389;28;20098;-70
2023/12/22 05:36:13;;;;;;;2.67;0.50;;;10.70;99.90;;;;;;5070887;28;20043;-72
2023/12/22 05:38:39;;;;;;;4.53;0.90;;;10.80;99.90;;;;;;5070322;28;20463;-72
2023/12/22 05:41:06;;;;;;;2.70;0.60;;;10.80;99.90;;;;;;5067050;28;20098;-72
2023/12/22 05:43:33;;;;;;;2.45;0.77;;;10.80;99.90;;;;;;5070399;28;20572;-73
2023/12/22 05:46:00;;;;;;;3.10;0.57;;;10.80;99.90;;;;;;5068770;28;20598;-72
2023/12/22 05:48:30;;;;;;;0.50;0.45;;;10.80;99.90;;;;;;5068225;28;20408;-70
2023/12/22 05:50:57;;;;;;;2.47;0.50;;;10.80;99.90;;;;;;5070526;28;20154;-72
2023/12/22 05:53:24;;;;;;;2.65;0.55;;;10.70;99.90;;;;;;5070363;28;20052;-74
2023/12/22 05:55:51;;;;;;;1.80;0.40;;;10.60;99.90;;;;;;5070954;28;20048;-72
2023/12/22 05:58:18;;;;;;;7.22;0.88;;;10.40;99.90;;;;;;5070761;28;20059;-72
2023/12/22 06:00:45;;;;;;;2.95;0.50;;;10.30;99.90;;;;;;5070823;28;20559;-72
2023/12/22 06:03:12;;;;;;;3.83;0.60;;;10.20;99.90;;;;;;5071367;28;20123;-71
2023/12/22 06:05:39;;;;;;;1.60;0.77;;;10.10;99.90;;;;;;5073230;28;20553;-71
2023/12/22 06:08:06;;;;;;;1.75;0.38;;;10.10;99.90;;;;;;5075353;28;20045;-72
2023/12/22 06:10:33;;;;;;;2.03;0.43;;;10.10;99.90;;;;;;5075118;28;20048;-72
2023/12/22 06:13:03;;;;;;;6.25;0.68;;;10.00;99.90;;;;;;5072913;28;20131;-72
2023/12/22 06:15:30;;;;;;;1.98;0.50;;;10.00;99.90;;;;;;5069887;28;20056;-72
2023/12/22 06:17:57;;;;;;;5.90;0.82;;;10.00;99.90;;;;;;5070153;28;20041;-72
2023/12/22 06:20:26;;;;;;;3.88;1.67;;;10.00;99.90;;;;;;5069955;28;20076;-72
2023/12/22 06:22:53;;;;;;;0.80;0.40;;;10.00;99.90;;;;;;5070243;28;20044;-72
2023/12/22 06:25:20;;;;;;;3.97;0.68;;;10.00;99.90;;;;;;5069086;28;20052;-72
2023/12/22 06:27:46;;;;;;;1.95;0.80;;;10.00;99.90;;;;;;5070119;28;20071;-73
2023/12/22 06:30:14;;;;;;;3.90;0.52;;;10.00;99.90;;;;;;5069177;28;20360;-72
2023/12/22 06:32:41;;;;;;;3.70;0.82;;;10.00;99.90;;;;;;5067576;28;20040;-72
2023/12/22 06:35:09;;;;;;;4.28;0.95;;;10.00;99.90;;;;;;5069217;28;20062;-71
2023/12/22 06:37:39;;;;;;;4.47;0.57;;;10.10;99.90;;;;;;5069980;28;20049;-71
2023/12/22 06:40:07;;;;;;;0.88;0.50;;;10.10;99.90;;;;;;5069424;28;20044;-70
2023/12/22 06:42:34;;;;;;;1.15;0.45;;;10.10;99.90;;;;;;5069526;28;20079;-71
2023/12/22 06:45:01;;;;;;;5.15;1.33;;;10.10;99.90;;;;;;5069049;28;20136;-71
2023/12/22 06:47:28;;;;;;;1.83;0.60;;;10.10;99.90;;;;;;5069666;28;20375;-72
2023/12/22 06:49:55;;;;;;;4.93;0.82;;;10.10;99.90;;;;;;5069430;28;20045;-72
2023/12/22 06:52:22;;;;;;;2.75;0.73;;;10.10;99.90;;;;;;5069591;28;20044;-72
2023/12/22 06:54:48;;;;;;;2.17;0.60;;;10.10;99.90;;;;;;5069112;28;20092;-72
2023/12/22 06:57:16;;;;;;;5.05;0.65;;;10.20;99.90;;;;;;5069046;28;20110;-71
2023/12/22 06:59:44;;;;;;;6.88;1.17;;;10.20;99.90;;;;;;5068904;28;20098;-72
2023/12/22 07:02:13;;;;;;;2.83;0.68;;;10.20;99.90;;;;;;5069472;28;20048;-72
2023/12/22 07:05:06;;;;;;;3.92;0.60;;;10.30;99.90;;;;;;5069076;28;20044;-71
2023/12/22 07:07:33;;;;;;;1.42;0.50;;;10.30;99.90;;;;;;5069028;28;20051;-72
2023/12/22 07:10:03;;;;;;;1.15;0.50;;;10.40;99.90;;;;;;5068791;28;20053;-73
2023/12/22 07:12:29;;;;;;;6.18;2.78;;;10.40;99.90;;;;;;5069157;28;20501;-71
2023/12/22 07:14:59;;;;;;;1.20;0.40;;;10.40;99.90;;;;;;5068948;28;20049;-71
2023/12/22 07:17:26;;;;;;;4.80;0.70;;;10.40;99.90;;;;;;5066980;28;20044;-71
2023/12/22 07:19:57;;;;;;;0.30;0.30;;;10.40;99.90;;;;;;5067066;28;20048;-71
2023/12/22 07:22:24;;;;;;;3.03;0.57;;;10.50;99.90;;;;;;5068789;28;20071;-71
2023/12/22 07:24:52;;;;;;;2.25;0.50;;;10.40;99.90;;;;;;5064186;28;20049;-71
2023/12/22 07:27:19;;;;;;;1.50;0.40;;;10.40;99.90;;;;;;5061417;28;20044;-71
2023/12/22 07:29:46;;;;;;;0.40;0.35;;;10.40;99.90;;;;;;5057146;28;20044;-72
2023/12/22 07:32:13;;;;;;;2.10;0.98;;;10.40;99.90;;;;;;5056452;28;20051;-71
2023/12/22 07:34:41;;;;;;;0.70;0.40;;;10.50;99.90;;;;;;5067383;28;20059;-72
2023/12/22 07:37:09;;;;;;;1.55;0.32;;;10.40;99.90;;;;;;5066727;28;20040;-70
2023/12/22 07:39:36;;;;;;;3.47;0.43;;;10.50;99.90;;;;;;5068454;28;20106;-71
2023/12/22 07:42:04;;;;;;;1.50;0.45;;;10.50;99.90;;;;;;5068428;28;20044;-71
2023/12/22 07:44:32;;;;;;;2.28;0.68;;;10.50;99.90;;;;;;5067810;28;20067;-72
2023/12/22 07:46:59;;;;;;;0.47;0.40;;;10.50;99.90;;;;;;5066269;28;20057;-71
2023/12/22 07:49:29;;;;;;;5.85;0.77;;;10.60;99.90;;;;;;5065458;28;20095;-71
2023/12/22 07:51:58;;;;;;;1.33;0.38;;;10.60;99.90;;;;;;5061132;28;20131;-71
2023/12/22 07:54:25;;;;;;;2.08;0.47;;;10.50;99.90;;;;;;5058840;28;20048;-72
2023/12/22 07:56:52;;;;;;;0.63;0.32;;;10.50;99.90;;;;;;5065748;28;20351;-71
2023/12/22 07:59:19;;;;;;;2.83;0.40;;;10.50;99.90;;;;;;5067179;28;20044;-71
2023/12/22 08:01:57;;;;;;;4.28;0.52;;;10.50;99.90;;;;;;5066963;28;20053;-69
2023/12/22 08:04:24;;;;;;;0.85;0.30;;;10.50;99.90;;;;;;5065255;28;20045;-71
2023/12/22 08:06:52;;;;;;;0.77;0.43;;;10.50;99.90;;;;;;5060554;28;20421;-71
2023/12/22 08:09:19;;;;;;;1.90;0.50;;;10.60;99.90;;;;;;5062041;28;20100;-72
2023/12/22 08:11:46;;;;;;;2.45;0.50;;;10.60;99.90;;;;;;5067778;28;20119;-71
2023/12/22 08:14:14;;;;;;;1.92;0.50;;;10.60;99.90;;;;;;5067381;28;20070;-71
2023/12/22 08:16:41;;;;;;;1.33;0.60;;;10.70;99.90;;;;;;5067692;28;20472;-72
2023/12/22 08:19:08;;;;;;;1.67;0.95;;;10.70;99.90;;;;;;5067970;28;20059;-71
2023/12/22 08:21:35;;;;;;;1.35;0.60;;;10.70;99.90;;;;;;5058591;28;20049;-72
2023/12/22 08:24:12;;;;;;;3.45;0.70;;;10.70;99.90;;;;;;5065937;28;20135;-71
2023/12/22 08:26:49;;;;;;;3.03;0.80;;;10.80;99.90;;;;;;5062938;28;20487;-71
2023/12/22 08:29:16;;;;;;;4.93;0.70;;;10.70;99.90;;;;;;5066716;28;20158;-71
2023/12/22 08:31:43;;;;;;;2.53;0.70;;;10.70;99.90;;;;;;5063390;28;20040;-71
2023/12/22 08:34:11;;;;;;;4.38;0.70;;;10.80;99.90;;;;;;5062233;28;20045;-71
2023/12/22 08:36:38;;;;;;;3.65;0.55;;;10.80;99.90;;;;;;5065423;28;20055;-69
2023/12/22 08:39:05;;;;;;;2.17;0.70;;;10.90;99.90;;;;;;5059727;28;20556;-68
2023/12/22 08:41:36;;;;;;;3.72;0.98;;;10.90;99.90;;;;;;5065951;28;20327;-68
2023/12/22 08:44:04;;;;;;;1.85;0.50;;;10.90;99.90;;;;;;5063476;28;20541;-69
2023/12/22 08:46:32;;;;;;;2.15;0.70;;;10.90;99.90;;;;;;5069269;28;20265;-69
2023/12/22 08:49:02;;;;;;;4.25;1.17;;;11.00;99.90;;;;;;5061987;28;20064;-70
2023/12/22 08:51:30;;;;;;;2.90;0.80;;;11.00;99.90;;;;;;5065283;28;20099;-70
2023/12/22 08:53:57;;;;;;;2.42;0.80;;;11.10;99.90;;;;;;5056239;28;20067;-70
2023/12/22 08:56:24;;;;;;;3.47;0.60;;;11.10;99.90;;;;;;5057620;28;20045;-69
2023/12/22 08:58:51;;;;;;;1.95;0.57;;;11.10;99.90;;;;;;5054057;28;20098;-69
2023/12/22 09:01:19;;;;;;;2.83;0.55;;;11.10;99.90;;;;;;5060987;28;20049;-69
2023/12/22 09:03:46;;;;;;;6.88;1.08;;;11.10;99.90;;;;;;5068028;28;20103;-70
2023/12/22 09:06:20;;;;;;;1.13;0.47;;;11.20;99.90;;;;;;5070890;28;20048;-70
2023/12/22 09:08:47;;;;;;;4.78;0.50;;;11.20;99.90;;;;;;5067528;28;20308;-69
2023/12/22 09:11:16;;;;;;;2.40;0.63;;;11.20;99.90;;;;;;5068117;28;20465;-69
2023/12/22 09:13:43;;;;;;;3.25;0.85;;;11.30;99.90;;;;;;5068608;28;20106;-69
2023/12/22 09:16:10;;;;;;;4.05;0.63;;;11.20;99.90;;;;;;5068074;28;20185;-69
2023/12/22 09:18:37;;;;;;;3.88;0.98;;;11.20;99.90;;;;;;5063764;28;20049;-70
2023/12/22 09:21:04;;;;;;;3.15;1.05;;;11.30;99.90;;;;;;5068190;28;20057;-70
2023/12/22 09:23:31;;;;;;;1.38;0.80;;;11.30;99.90;;;;;;5061440;28;20397;-70
2023/12/22 09:25:58;;;;;;;3.17;0.80;;;11.30;99.90;;;;;;5058750;28;20094;-70
2023/12/22 09:28:25;;;;;;;1.35;0.73;;;11.30;99.90;;;;;;5062644;28;20055;-71
2023/12/22 09:30:52;;;;;;;2.25;0.60;;;11.40;99.90;;;;;;5056982;28;20049;-68
2023/12/22 09:33:20;;;;;;;5.38;0.70;;;11.40;99.90;;;;;;5062010;28;20371;-70
2023/12/22 09:35:47;;;;;;;1.92;0.60;;;11.40;99.90;;;;;;5066004;28;20486;-70
2023/12/22 09:38:14;;;;;;;3.95;0.95;;;11.40;99.90;;;;;;5068046;28;20057;-70
2023/12/22 09:40:41;;;;;;;4.13;0.68;;;11.40;99.90;;;;;;5066888;28;20048;-70
2023/12/22 09:43:09;;;;;;;5.43;1.45;;;11.40;99.90;;;;;;5065192;28;20124;-69
2023/12/22 09:45:37;;;;;;;0.75;0.50;;;11.40;99.90;;;;;;5064089;28;20045;-69
2023/12/22 09:48:04;;;;;;;2.00;0.70;;;11.40;99.90;;;;;;5045865;28;20051;-69
2023/12/22 09:50:31;;;;;;;2.88;0.60;;;11.40;99.90;;;;;;5043576;28;20165;-68
2023/12/22 09:52:58;;;;;;;5.90;1.10;;;11.40;99.90;;;;;;5064727;28;20049;-68
2023/12/22 09:55:26;;;;;;;2.22;0.70;;;11.40;99.90;;;;;;5037310;28;20190;-69
2023/12/22 09:57:53;;;;;;;2.70;0.75;;;11.40;99.90;;;;;;5065271;28;20041;-69
2023/12/22 10:00:20;;;;;;;5.22;1.00;;;11.40;99.90;;;;;;5066995;28;20053;-70
2023/12/22 10:02:47;;;;;;;1.35;0.70;;;11.40;99.90;;;;;;5052014;28;20247;-68
2023/12/22 10:05:14;;;;;;;10.32;1.58;;;11.40;99.90;;;;;;5063213;28;20342;-69
2023/12/22 10:07:42;;;;;;;5.15;1.17;;;11.40;99.90;;;;;;5060840;28;20049;-69
2023/12/22 10:10:09;;;;;;;4.30;0.88;;;11.40;99.90;;;;;;5064464;28;20052;-68
2023/12/22 10:12:36;;;;;;;5.82;0.70;;;11.40;99.90;;;;;;5027172;28;20049;-69
2023/12/22 10:15:03;;;;;;;5.70;0.80;;;11.40;99.90;;;;;;5065006;28;20036;-69
2023/12/22 10:17:30;;;;;;;3.60;0.80;;;11.40;99.90;;;;;;5065649;28;20479;-68
2023/12/22 10:19:57;;;;;;;4.10;0.80;;;11.50;99.90;;;;;;5066464;28;20057;-69
2023/12/22 10:22:24;;;;;;;4.90;0.93;;;11.50;99.90;;;;;;5070138;28;20123;-69
2023/12/22 10:24:51;;;;;;;4.57;1.00;;;11.50;99.90;;;;;;5069511;28;20076;-69
2023/12/22 10:27:22;;;;;;;2.17;0.82;;;11.50;99.90;;;;;;5070002;28;20098;-69
2023/12/22 10:29:58;;;;;;;2.15;0.95;;;11.60;99.90;;;;;;5061554;28;20052;-69
2023/12/22 10:32:26;;;;;;;3.53;1.25;;;11.60;99.90;;;;;;5069331;28;20131;-69
2023/12/22 10:34:53;;;;;;;2.53;1.15;;;11.60;99.90;;;;;;5063208;28;20045;-70
2023/12/22 10:37:21;;;;;;;2.60;0.60;;;11.60;99.90;;;;;;5067471;28;20056;-68
2023/12/22 10:39:54;;;;;;;4.47;1.15;;;11.60;99.90;;;;;;5065030;28;20053;-70
2023/12/22 10:42:21;;;;;;;5.47;2.20;;;11.50;99.90;;;;;;5066428;28;20056;-69
2023/12/22 10:44:49;;;;;;;6.70;1.02;;;11.60;99.90;;;;;;5065645;28;20044;-69
2023/12/22 10:47:21;;;;;;;5.40;1.83;;;11.50;99.90;;;;;;5068292;28;20048;-70
2023/12/22 10:49:48;;;;;;;2.40;0.75;;;11.50;99.90;;;;;;5064554;28;20041;-69
2023/12/22 10:52:20;;;;;;;5.93;1.08;;;11.50;99.90;;;;;;5069464;28;20490;-67
2023/12/22 10:54:48;;;;;;;2.22;0.70;;;11.60;99.90;;;;;;5067303;28;20048;-69
2023/12/22 10:57:19;;;;;;;5.82;1.40;;;11.60;99.90;;;;;;5069049;28;20113;-70
2023/12/22 10:59:47;;;;;;;5.55;0.88;;;11.60;99.90;;;;;;5066167;28;20048;-69
2023/12/22 11:02:26;;;;;;;3.97;1.20;;;11.50;99.90;;;;;;5057854;28;20052;-69
2023/12/22 11:05:05;;;;;;;8.40;1.63;;;11.60;99.90;;;;;;5061940;28;20053;-72
2023/12/22 11:07:37;;;;;;;9.77;2.05;;;11.50;99.90;;;;;;5057996;28;20064;-70
2023/12/22 11:10:06;;;;;;;8.43;1.67;;;11.50;99.90;;;;;;5065995;28;20047;-71
2023/12/22 11:12:36;;;;;;;8.95;1.30;;;11.50;99.90;;;;;;5052802;28;20078;-70
2023/12/22 11:15:08;;;;;;;5.03;1.67;;;11.50;99.90;;;;;;5068263;28;20051;-68
2023/12/22 11:17:40;;;;;;;7.85;1.92;;;11.50;99.90;;;;;;5065661;28;20048;-69
2023/12/22 11:20:10;;;;;;;4.63;1.08;;;11.60;99.90;;;;;;5064524;28;20066;-69
2023/12/22 11:22:37;;;;;;;7.28;1.67;;;11.60;99.90;;;;;;5067338;28;20048;-69
2023/12/22 11:25:04;;;;;;;6.40;1.45;;;11.60;99.90;;;;;;5049555;28;20041;-69
2023/12/22 11:27:32;;;;;;;7.97;2.03;;;11.60;99.90;;;;;;5068837;28;20048;-70
2023/12/22 11:30:00;;;;;;;3.40;1.05;;;11.70;99.90;;;;;;5066809;28;20040;-72
2023/12/22 11:32:27;;;;;;;5.43;1.58;;;11.70;99.90;;;;;;5066513;28;20450;-70
2023/12/22 11:34:54;;;;;;;6.75;1.27;;;11.80;99.90;;;;;;5048823;28;20671;-70
2023/12/22 11:37:21;;;;;;;9.25;1.45;;;11.80;99.90;;;;;;5050555;28;20395;-70
2023/12/22 11:39:48;;;;;;;5.20;1.10;;;11.80;99.90;;;;;;5057163;28;20431;-72
2023/12/22 11:42:19;;;;;;;7.93;1.52;;;11.80;99.90;;;;;;5063308;28;20560;-69
2023/12/22 11:44:47;;;;;;;16.90;2.38;;;11.90;99.90;;;;;;5048967;28;20403;-70
2023/12/22 11:47:14;;;;;;;9.95;1.92;;;12.00;99.90;;;;;;5063348;28;20067;-68
2023/12/22 11:49:41;;;;;;;9.00;1.23;;;11.90;99.90;;;;;;5057315;28;20044;-69
2023/12/22 11:52:18;;;;;;;4.00;1.00;;;12.00;99.90;;;;;;5059437;28;20079;-70
2023/12/22 11:54:48;;;;;;;7.50;1.65;;;12.00;99.90;;;;;;5066628;28;20052;-69
2023/12/22 11:57:28;;;;;;;5.43;1.05;;;12.10;99.90;;;;;;4710911;28;9999996;-69
2023/12/22 11:59:55;;;;;;;6.40;1.35;;;12.10;99.90;;;;;;5061403;28;20087;-70
2023/12/22 12:02:22;;;;;;;9.13;1.95;;;12.10;99.90;;;;;;5057837;28;20062;-70
2023/12/22 12:04:50;;;;;;;9.60;1.35;;;12.10;99.90;;;;;;5062747;28;20045;-71
2023/12/22 12:07:36;;;;;;;5.85;0.88;;;12.10;99.90;;;;;;5063887;28;20055;-70
2023/12/22 12:10:03;;;;;;;3.88;1.33;;;12.10;99.90;;;;;;5052388;28;20518;-70
2023/12/22 12:12:31;;;;;;;6.03;1.15;;;12.10;99.90;;;;;;5063563;28;20352;-68
2023/12/22 12:14:58;;;;;;;5.53;1.40;;;12.20;99.90;;;;;;5058593;28;20463;-69
2023/12/22 12:17:25;;;;;;;8.73;2.97;;;12.20;99.90;;;;;;5061784;28;20044;-69
2023/12/22 12:19:52;;;;;;;5.55;2.33;;;12.20;99.90;;;;;;5060719;28;20352;-72
2023/12/22 12:22:24;;;;;;;11.93;1.23;;;12.20;99.90;;;;;;5061582;28;20040;-70
2023/12/22 12:24:54;;;;;;;4.03;0.85;;;12.20;99.90;;;;;;5053396;28;20080;-69
2023/12/22 12:27:21;;;;;;;4.18;0.93;;;12.20;99.90;;;;;;5054356;28;20566;-69
2023/12/22 12:29:51;;;;;;;3.67;1.35;;;12.20;99.90;;;;;;5059648;28;20049;-70
2023/12/22 12:32:17;;;;;;;1.83;0.77;;;12.10;99.90;;;;;;5062871;28;20052;-69
2023/12/22 12:34:44;;;;;;;6.03;1.25;;;12.20;99.90;;;;;;5061350;28;20154;-70
2023/12/22 12:37:12;;;;;;;6.85;1.20;;;12.20;99.90;;;;;;5057583;28;20052;-70
2023/12/22 12:39:39;;;;;;;7.63;1.10;;;12.20;99.90;;;;;;5062421;28;20045;-69
2023/12/22 12:42:07;;;;;;;7.45;3.20;;;12.20;99.90;;;;;;5060910;28;20495;-69
2023/12/22 12:44:35;;;;;;;10.23;1.02;;;12.20;99.90;;;;;;5063042;28;20551;-70
2023/12/22 12:47:14;;;;;;;3.60;0.90;;;12.20;99.90;;;;;;5059482;28;20040;-68
2023/12/22 12:49:41;;;;;;;4.90;1.65;;;12.20;99.90;;;;;;5059797;28;20491;-70